sensor_id;sensor_type;location;lat;lon;timestamp;pressure;altitude;pressure_sealevel;temperature;humidity
4024;BME280;2026;51.002;13.668;2023-04-10T00:04:33;99926.09;;;5.21;86.73
4024;BME280;2026;51.002;13.668;2023-04-10T00:09:36;99926.06;;;5.13;86.79
4024;BME280;2026;51.002;13.668;2023-04-10T00:14:39;99919.84;;;5.06;86.69
4024;BME280;2026;51.002;13.668;2023-04-10T00:19:43;99919.50;;;5.01;87.33
4024;BME280;2026;51.002;13.668;2023-04-10T00:24:46;99907.13;;;4.94;86.65
4024;BME280;2026;51.002;13.668;2023-04-10T00:29:49;99906.88;;;4.79;87.57
4024;BME280;2026;51.002;13.668;2023-04-10T00:34:53;99909.31;;;4.81;87.24
4024;BME280;2026;51.002;13.668;2023-04-10T00:39:56;99901.03;;;4.59;89.16
4024;BME280;2026;51.002;13.668;2023-04-10T00:44:59;99896.66;;;4.60;88.41
4024;BME280;2026;51.002;13.668;2023-04-10T00:50:05;99906.84;;;4.53;88.31
4024;BME280;2026;51.002;13.668;2023-04-10T00:55:08;99901.59;;;4.45;89.00
4024;BME280;2026;51.002;13.668;2023-04-10T01:00:13;99891.88;;;4.47;88.48
4024;BME280;2026;51.002;13.668;2023-04-10T01:05:17;99886.25;;;4.33;89.21
4024;BME280;2026;51.002;13.668;2023-04-10T01:10:28;99894.47;;;4.47;88.85
4024;BME280;2026;51.002;13.668;2023-04-10T01:15:41;99902.78;;;4.32;88.81
4024;BME280;2026;51.002;13.668;2023-04-10T01:20:47;99905.97;;;4.26;89.09
4024;BME280;2026;51.002;13.668;2023-04-10T01:25:53;99910.88;;;4.29;88.74
4024;BME280;2026;51.002;13.668;2023-04-10T01:31:00;99906.34;;;4.13;90.15
4024;BME280;2026;51.002;13.668;2023-04-10T01:36:05;99903.16;;;4.01;89.96
4024;BME280;2026;51.002;13.668;2023-04-10T01:41:09;99914.94;;;3.95;89.85
4024;BME280;2026;51.002;13.668;2023-04-10T01:46:13;99916.50;;;3.88;90.34
4024;BME280;2026;51.002;13.668;2023-04-10T01:51:18;99894.13;;;3.87;89.26
4024;BME280;2026;51.002;13.668;2023-04-10T01:56:22;99895.69;;;3.98;90.11
4024;BME280;2026;51.002;13.668;2023-04-10T02:01:27;99884.03;;;4.02;89.97
4024;BME280;2026;51.002;13.668;2023-04-10T02:06:39;99887.00;;;4.07;89.71
4024;BME280;2026;51.002;13.668;2023-04-10T02:11:46;99886.09;;;3.98;90.27
4024;BME280;2026;51.002;13.668;2023-04-10T02:16:54;99889.06;;;3.85;91.18
4024;BME280;2026;51.002;13.668;2023-04-10T02:21:59;99879.06;;;3.91;90.90
4024;BME280;2026;51.002;13.668;2023-04-10T02:27:02;99873.88;;;3.91;91.04
4024;BME280;2026;51.002;13.668;2023-04-10T02:32:06;99875.44;;;3.83;90.79
4024;BME280;2026;51.002;13.668;2023-04-10T02:37:09;99867.94;;;3.62;91.54
4024;BME280;2026;51.002;13.668;2023-04-10T02:42:12;99875.44;;;3.55;92.84
4024;BME280;2026;51.002;13.668;2023-04-10T02:47:18;99875.31;;;3.57;91.87
4024;BME280;2026;51.002;13.668;2023-04-10T02:52:22;99867.00;;;3.53;91.93
4024;BME280;2026;51.002;13.668;2023-04-10T02:57:25;99875.88;;;3.51;92.02
4024;BME280;2026;51.002;13.668;2023-04-10T03:02:30;99873.44;;;3.49;91.83
4024;BME280;2026;51.002;13.668;2023-04-10T03:07:42;99876.19;;;3.47;91.56
4024;BME280;2026;51.002;13.668;2023-04-10T03:12:45;99883.44;;;3.44;90.55
4024;BME280;2026;51.002;13.668;2023-04-10T03:17:50;99875.66;;;3.44;90.96
4024;BME280;2026;51.002;13.668;2023-04-10T03:22:53;99887.94;;;3.42;91.49
4024;BME280;2026;51.002;13.668;2023-04-10T03:28:00;99873.72;;;3.46;91.71
4024;BME280;2026;51.002;13.668;2023-04-10T03:33:04;99875.75;;;3.52;92.71
4024;BME280;2026;51.002;13.668;2023-04-10T03:38:07;99874.25;;;3.50;93.34
4024;BME280;2026;51.002;13.668;2023-04-10T03:43:10;99877.09;;;3.56;93.44
4024;BME280;2026;51.002;13.668;2023-04-10T03:48:15;99874.22;;;3.59;92.91
4024;BME280;2026;51.002;13.668;2023-04-10T03:53:20;99874.97;;;3.70;93.03
4024;BME280;2026;51.002;13.668;2023-04-10T03:58:25;99870.00;;;3.58;93.94
4024;BME280;2026;51.002;13.668;2023-04-10T04:03:31;99882.44;;;3.55;94.25
4024;BME280;2026;51.002;13.668;2023-04-10T04:08:34;99878.53;;;3.69;93.83
4024;BME280;2026;51.002;13.668;2023-04-10T04:13:50;99897.06;;;3.74;92.59
4024;BME280;2026;51.002;13.668;2023-04-10T04:19:21;99893.50;;;3.75;93.25
4024;BME280;2026;51.002;13.668;2023-04-10T04:24:40;99904.84;;;3.74;92.87
4024;BME280;2026;51.002;13.668;2023-04-10T04:29:53;99897.16;;;3.82;92.50
4024;BME280;2026;51.002;13.668;2023-04-10T04:35:00;99906.16;;;3.78;92.65
4024;BME280;2026;51.002;13.668;2023-04-10T04:40:30;99905.47;;;3.86;93.44
4024;BME280;2026;51.002;13.668;2023-04-10T04:45:47;99901.00;;;3.96;94.03
4024;BME280;2026;51.002;13.668;2023-04-10T04:51:06;99900.25;;;4.04;94.01
4024;BME280;2026;51.002;13.668;2023-04-10T04:56:20;99903.16;;;4.19;93.12
4024;BME280;2026;51.002;13.668;2023-04-10T05:01:40;99910.06;;;4.47;92.92
4024;BME280;2026;51.002;13.668;2023-04-10T05:07:04;99913.13;;;4.68;91.99
4024;BME280;2026;51.002;13.668;2023-04-10T05:12:33;99900.91;;;4.87;91.30
4024;BME280;2026;51.002;13.668;2023-04-10T05:18:11;99904.84;;;4.91;91.06
4024;BME280;2026;51.002;13.668;2023-04-10T05:23:34;99909.69;;;4.86;90.84
4024;BME280;2026;51.002;13.668;2023-04-10T05:29:03;99917.66;;;5.19;89.91
4024;BME280;2026;51.002;13.668;2023-04-10T05:34:29;99912.47;;;5.62;89.43
4024;BME280;2026;51.002;13.668;2023-04-10T05:39:44;99916.84;;;6.21;88.09
4024;BME280;2026;51.002;13.668;2023-04-10T05:45:10;99921.53;;;6.68;86.77
4024;BME280;2026;51.002;13.668;2023-04-10T05:50:39;99914.44;;;7.26;83.48
4024;BME280;2026;51.002;13.668;2023-04-10T05:56:07;99916.22;;;7.34;82.18
4024;BME280;2026;51.002;13.668;2023-04-10T06:01:40;99914.97;;;8.17;79.64
4024;BME280;2026;51.002;13.668;2023-04-10T06:06:43;99909.84;;;9.00;75.80
4024;BME280;2026;51.002;13.668;2023-04-10T06:11:47;99917.84;;;9.59;73.08
4024;BME280;2026;51.002;13.668;2023-04-10T06:16:54;99910.09;;;9.50;74.22
4024;BME280;2026;51.002;13.668;2023-04-10T06:21:57;99916.94;;;8.91;76.35
4024;BME280;2026;51.002;13.668;2023-04-10T06:27:01;99916.31;;;9.34;73.68
4024;BME280;2026;51.002;13.668;2023-04-10T06:32:04;99896.97;;;9.81;74.14
4024;BME280;2026;51.002;13.668;2023-04-10T06:37:11;99898.78;;;10.24;72.39
4024;BME280;2026;51.002;13.668;2023-04-10T06:42:16;99892.09;;;10.43;71.55
4024;BME280;2026;51.002;13.668;2023-04-10T06:47:30;99902.63;;;11.13;71.14
4024;BME280;2026;51.002;13.668;2023-04-10T06:52:33;99902.31;;;11.30;69.95
4024;BME280;2026;51.002;13.668;2023-04-10T06:57:37;99894.78;;;11.69;68.53
4024;BME280;2026;51.002;13.668;2023-04-10T07:02:40;99893.84;;;11.35;68.69
4024;BME280;2026;51.002;13.668;2023-04-10T07:07:43;99896.31;;;11.43;66.49
4024;BME280;2026;51.002;13.668;2023-04-10T07:12:49;99886.00;;;12.64;65.13
4024;BME280;2026;51.002;13.668;2023-04-10T07:17:52;99896.44;;;12.98;65.78
4024;BME280;2026;51.002;13.668;2023-04-10T07:22:56;99887.53;;;13.06;64.35
4024;BME280;2026;51.002;13.668;2023-04-10T07:28:01;99883.94;;;12.73;64.96
4024;BME280;2026;51.002;13.668;2023-04-10T07:33:04;99876.75;;;13.21;64.23
4024;BME280;2026;51.002;13.668;2023-04-10T07:38:07;99874.28;;;14.04;64.26
4024;BME280;2026;51.002;13.668;2023-04-10T07:43:11;99870.41;;;14.32;62.39
4024;BME280;2026;51.002;13.668;2023-04-10T07:48:14;99862.50;;;14.07;63.99
4024;BME280;2026;51.002;13.668;2023-04-10T07:53:17;99868.44;;;13.17;68.18
4024;BME280;2026;51.002;13.668;2023-04-10T07:58:21;99865.41;;;13.20;67.36
4024;BME280;2026;51.002;13.668;2023-04-10T08:03:25;99867.31;;;12.93;67.83
4024;BME280;2026;51.002;13.668;2023-04-10T08:08:28;99852.94;;;14.12;65.59
4024;BME280;2026;51.002;13.668;2023-04-10T08:13:32;99856.78;;;14.35;63.81
4024;BME280;2026;51.002;13.668;2023-04-10T08:18:35;99862.47;;;13.81;66.03
4024;BME280;2026;51.002;13.668;2023-04-10T08:23:38;99853.59;;;14.77;61.71
4024;BME280;2026;51.002;13.668;2023-04-10T08:28:42;99849.66;;;14.36;63.53
4024;BME280;2026;51.002;13.668;2023-04-10T08:33:48;99846.34;;;14.22;62.96
4024;BME280;2026;51.002;13.668;2023-04-10T08:38:51;99845.13;;;13.28;65.92
4024;BME280;2026;51.002;13.668;2023-04-10T08:43:55;99840.97;;;14.35;64.30
4024;BME280;2026;51.002;13.668;2023-04-10T08:49:02;99831.34;;;14.22;63.43
4024;BME280;2026;51.002;13.668;2023-04-10T08:54:07;99824.16;;;14.92;60.77
4024;BME280;2026;51.002;13.668;2023-04-10T08:59:13;99827.16;;;15.45;56.51
4024;BME280;2026;51.002;13.668;2023-04-10T09:04:16;99822.22;;;14.69;58.89
4024;BME280;2026;51.002;13.668;2023-04-10T09:09:20;99820.81;;;15.34;58.79
4024;BME280;2026;51.002;13.668;2023-04-10T09:14:26;99809.72;;;16.11;56.25
4024;BME280;2026;51.002;13.668;2023-04-10T09:19:29;99808.72;;;15.57;56.34
4024;BME280;2026;51.002;13.668;2023-04-10T09:24:34;99807.81;;;15.33;57.07
4024;BME280;2026;51.002;13.668;2023-04-10T09:29:43;99809.97;;;15.24;57.93
4024;BME280;2026;51.002;13.668;2023-04-10T09:34:53;99810.31;;;14.60;59.98
4024;BME280;2026;51.002;13.668;2023-04-10T09:39:58;99803.75;;;15.49;57.45
4024;BME280;2026;51.002;13.668;2023-04-10T09:45:03;99794.22;;;15.48;58.21
4024;BME280;2026;51.002;13.668;2023-04-10T09:50:07;99789.38;;;14.39;61.50
4024;BME280;2026;51.002;13.668;2023-04-10T09:55:16;99779.38;;;14.48;59.91
4024;BME280;2026;51.002;13.668;2023-04-10T10:00:20;99765.72;;;15.50;59.11
4024;BME280;2026;51.002;13.668;2023-04-10T10:05:23;99757.75;;;15.92;57.58
4024;BME280;2026;51.002;13.668;2023-04-10T10:10:28;99760.34;;;16.64;52.43
4024;BME280;2026;51.002;13.668;2023-04-10T10:15:36;99748.47;;;16.55;54.81
4024;BME280;2026;51.002;13.668;2023-04-10T10:20:43;99732.41;;;16.85;53.33
4024;BME280;2026;51.002;13.668;2023-04-10T10:25:48;99731.88;;;16.71;54.35
4024;BME280;2026;51.002;13.668;2023-04-10T10:30:54;99714.59;;;17.78;49.85
4024;BME280;2026;51.002;13.668;2023-04-10T10:35:58;99712.16;;;17.94;48.92
4024;BME280;2026;51.002;13.668;2023-04-10T10:41:09;99704.44;;;17.36;47.85
4024;BME280;2026;51.002;13.668;2023-04-10T10:46:19;99703.75;;;17.80;47.33
4024;BME280;2026;51.002;13.668;2023-04-10T10:51:44;99690.00;;;17.83;47.64
4024;BME280;2026;51.002;13.668;2023-04-10T10:56:48;99687.34;;;17.83;47.40
4024;BME280;2026;51.002;13.668;2023-04-10T11:02:13;99684.50;;;16.87;49.78
4024;BME280;2026;51.002;13.668;2023-04-10T11:07:17;99667.47;;;17.12;45.34
4024;BME280;2026;51.002;13.668;2023-04-10T11:12:21;99655.13;;;17.35;47.19
4024;BME280;2026;51.002;13.668;2023-04-10T11:17:48;99636.38;;;17.41;46.85
4024;BME280;2026;51.002;13.668;2023-04-10T11:23:08;99634.19;;;16.87;47.16
4024;BME280;2026;51.002;13.668;2023-04-10T11:28:34;99634.22;;;17.21;45.20
4024;BME280;2026;51.002;13.668;2023-04-10T11:33:38;99617.31;;;17.62;43.97
4024;BME280;2026;51.002;13.668;2023-04-10T11:38:52;99611.47;;;17.42;44.69
4024;BME280;2026;51.002;13.668;2023-04-10T11:43:56;99606.91;;;17.38;45.83
4024;BME280;2026;51.002;13.668;2023-04-10T11:49:02;99593.09;;;17.36;44.41
4024;BME280;2026;51.002;13.668;2023-04-10T11:54:07;99595.34;;;17.27;43.86
4024;BME280;2026;51.002;13.668;2023-04-10T11:59:10;99578.00;;;17.36;44.35
4024;BME280;2026;51.002;13.668;2023-04-10T12:04:17;99575.25;;;17.48;41.92
4024;BME280;2026;51.002;13.668;2023-04-10T12:09:21;99561.31;;;17.01;40.71
4024;BME280;2026;51.002;13.668;2023-04-10T12:14:29;99565.88;;;17.23;40.64
4024;BME280;2026;51.002;13.668;2023-04-10T12:19:34;99564.69;;;17.31;39.11
4024;BME280;2026;51.002;13.668;2023-04-10T12:24:41;99563.91;;;16.96;38.70
4024;BME280;2026;51.002;13.668;2023-04-10T12:29:45;99557.56;;;17.14;38.54
4024;BME280;2026;51.002;13.668;2023-04-10T12:34:54;99547.72;;;17.49;37.04
4024;BME280;2026;51.002;13.668;2023-04-10T12:40:04;99547.50;;;17.34;34.94
4024;BME280;2026;51.002;13.668;2023-04-10T12:45:08;99549.06;;;16.95;37.08
4024;BME280;2026;51.002;13.668;2023-04-10T12:50:17;99540.25;;;17.29;35.42
4024;BME280;2026;51.002;13.668;2023-04-10T12:55:21;99533.56;;;17.04;36.26
4024;BME280;2026;51.002;13.668;2023-04-10T13:00:24;99535.13;;;17.62;35.99
4024;BME280;2026;51.002;13.668;2023-04-10T13:05:28;99526.19;;;17.68;38.39
4024;BME280;2026;51.002;13.668;2023-04-10T13:10:31;99525.25;;;17.79;35.46
4024;BME280;2026;51.002;13.668;2023-04-10T13:15:34;99517.91;;;17.86;34.79
4024;BME280;2026;51.002;13.668;2023-04-10T13:20:39;99511.31;;;17.67;36.32
4024;BME280;2026;51.002;13.668;2023-04-10T13:25:42;99510.66;;;17.15;37.63
4024;BME280;2026;51.002;13.668;2023-04-10T13:30:45;99502.03;;;17.02;39.40
4024;BME280;2026;51.002;13.668;2023-04-10T13:35:49;99493.56;;;17.67;38.61
4024;BME280;2026;51.002;13.668;2023-04-10T13:40:52;99479.78;;;16.69;38.72
4024;BME280;2026;51.002;13.668;2023-04-10T13:45:55;99469.69;;;16.66;38.75
4024;BME280;2026;51.002;13.668;2023-04-10T13:51:00;99463.56;;;16.83;37.90
4024;BME280;2026;51.002;13.668;2023-04-10T13:56:03;99458.44;;;16.76;38.60
4024;BME280;2026;51.002;13.668;2023-04-10T14:01:07;99458.72;;;17.14;37.20
4024;BME280;2026;51.002;13.668;2023-04-10T14:06:11;99442.25;;;16.72;37.20
4024;BME280;2026;51.002;13.668;2023-04-10T14:11:14;99438.09;;;16.42;37.10
4024;BME280;2026;51.002;13.668;2023-04-10T14:16:17;99428.44;;;16.02;37.63
4024;BME280;2026;51.002;13.668;2023-04-10T14:21:22;99423.22;;;16.07;38.45
4024;BME280;2026;51.002;13.668;2023-04-10T14:26:25;99421.66;;;15.94;37.75
4024;BME280;2026;51.002;13.668;2023-04-10T14:31:28;99416.66;;;16.27;37.95
4024;BME280;2026;51.002;13.668;2023-04-10T14:36:32;99401.34;;;16.46;36.68
4024;BME280;2026;51.002;13.668;2023-04-10T14:41:35;99400.84;;;16.49;36.22
4024;BME280;2026;51.002;13.668;2023-04-10T14:46:38;99405.19;;;16.38;37.02
4024;BME280;2026;51.002;13.668;2023-04-10T14:51:43;99386.56;;;15.99;38.47
4024;BME280;2026;51.002;13.668;2023-04-10T14:56:49;99386.81;;;16.14;37.84
4024;BME280;2026;51.002;13.668;2023-04-10T15:01:52;99377.88;;;16.72;36.98
4024;BME280;2026;51.002;13.668;2023-04-10T15:06:56;99364.44;;;16.56;38.15
4024;BME280;2026;51.002;13.668;2023-04-10T15:11:59;99370.19;;;16.70;38.83
4024;BME280;2026;51.002;13.668;2023-04-10T15:17:02;99347.03;;;16.83;38.29
4024;BME280;2026;51.002;13.668;2023-04-10T15:22:07;99342.06;;;16.64;37.70
4024;BME280;2026;51.002;13.668;2023-04-10T15:27:10;99331.72;;;16.45;37.52
4024;BME280;2026;51.002;13.668;2023-04-10T15:32:13;99328.63;;;16.31;38.45
4024;BME280;2026;51.002;13.668;2023-04-10T15:37:17;99323.75;;;16.06;38.94
4024;BME280;2026;51.002;13.668;2023-04-10T15:42:20;99311.56;;;16.05;38.07
4024;BME280;2026;51.002;13.668;2023-04-10T15:47:23;99308.75;;;16.29;38.58
4024;BME280;2026;51.002;13.668;2023-04-10T15:52:28;99311.09;;;15.74;39.66
4024;BME280;2026;51.002;13.668;2023-04-10T15:57:33;99299.56;;;15.80;39.71
4024;BME280;2026;51.002;13.668;2023-04-10T16:02:36;99295.16;;;15.86;39.20
4024;BME280;2026;51.002;13.668;2023-04-10T16:07:41;99277.81;;;15.61;39.22
4024;BME280;2026;51.002;13.668;2023-04-10T16:12:44;99281.00;;;15.63;39.10
4024;BME280;2026;51.002;13.668;2023-04-10T16:17:47;99277.47;;;15.57;40.57
4024;BME280;2026;51.002;13.668;2023-04-10T16:22:52;99263.88;;;15.65;39.72
4024;BME280;2026;51.002;13.668;2023-04-10T16:27:55;99265.84;;;15.41;40.38
4024;BME280;2026;51.002;13.668;2023-04-10T16:32:58;99260.34;;;15.13;40.84
4024;BME280;2026;51.002;13.668;2023-04-10T16:38:02;99262.53;;;15.17;41.12
4024;BME280;2026;51.002;13.668;2023-04-10T16:43:07;99257.25;;;15.34;40.82
4024;BME280;2026;51.002;13.668;2023-04-10T16:48:10;99254.69;;;14.93;42.21
4024;BME280;2026;51.002;13.668;2023-04-10T16:53:14;99246.44;;;15.18;42.01
4024;BME280;2026;51.002;13.668;2023-04-10T16:58:18;99231.16;;;14.91;42.44
4024;BME280;2026;51.002;13.668;2023-04-10T17:03:21;99231.34;;;15.02;41.96
4024;BME280;2026;51.002;13.668;2023-04-10T17:08:25;99218.31;;;14.95;41.48
4024;BME280;2026;51.002;13.668;2023-04-10T17:13:28;99222.25;;;14.80;42.43
4024;BME280;2026;51.002;13.668;2023-04-10T17:18:31;99215.09;;;14.64;42.44
4024;BME280;2026;51.002;13.668;2023-04-10T17:23:35;99212.34;;;14.58;43.03
4024;BME280;2026;51.002;13.668;2023-04-10T17:28:39;99205.97;;;14.30;43.63
4024;BME280;2026;51.002;13.668;2023-04-10T17:33:45;99211.72;;;14.03;44.22
4024;BME280;2026;51.002;13.668;2023-04-10T17:38:49;99216.53;;;14.07;45.54
4024;BME280;2026;51.002;13.668;2023-04-10T17:43:54;99207.13;;;13.99;45.37
4024;BME280;2026;51.002;13.668;2023-04-10T17:48:57;99211.47;;;13.45;46.50
4024;BME280;2026;51.002;13.668;2023-04-10T17:54:03;99204.81;;;13.43;46.81
4024;BME280;2026;51.002;13.668;2023-04-10T17:59:06;99199.41;;;13.38;47.35
4024;BME280;2026;51.002;13.668;2023-04-10T18:04:09;99190.44;;;13.27;47.43
4024;BME280;2026;51.002;13.668;2023-04-10T18:09:14;99182.09;;;12.99;47.96
4024;BME280;2026;51.002;13.668;2023-04-10T18:14:17;99186.50;;;13.05;48.00
4024;BME280;2026;51.002;13.668;2023-04-10T18:19:20;99187.22;;;12.82;48.67
4024;BME280;2026;51.002;13.668;2023-04-10T18:24:25;99179.16;;;12.77;48.74
4024;BME280;2026;51.002;13.668;2023-04-10T18:29:29;99166.19;;;12.63;48.87
4024;BME280;2026;51.002;13.668;2023-04-10T18:34:33;99158.75;;;12.60;49.43
4024;BME280;2026;51.002;13.668;2023-04-10T18:39:37;99153.94;;;12.38;49.88
4024;BME280;2026;51.002;13.668;2023-04-10T18:44:40;99154.09;;;12.25;50.42
4024;BME280;2026;51.002;13.668;2023-04-10T18:49:43;99143.31;;;12.15;52.01
4024;BME280;2026;51.002;13.668;2023-04-10T18:54:48;99141.84;;;12.00;51.45
4024;BME280;2026;51.002;13.668;2023-04-10T18:59:51;99138.75;;;11.84;52.95
4024;BME280;2026;51.002;13.668;2023-04-10T19:04:54;99135.09;;;11.67;54.12
4024;BME280;2026;51.002;13.668;2023-04-10T19:09:58;99131.88;;;11.39;54.18
4024;BME280;2026;51.002;13.668;2023-04-10T19:15:02;99123.25;;;11.32;55.77
4024;BME280;2026;51.002;13.668;2023-04-10T19:20:07;99116.19;;;11.33;54.94
4024;BME280;2026;51.002;13.668;2023-04-10T19:25:11;99106.66;;;11.38;55.16
4024;BME280;2026;51.002;13.668;2023-04-10T19:30:14;99101.78;;;11.42;54.66
4024;BME280;2026;51.002;13.668;2023-04-10T19:35:17;99084.81;;;11.38;54.06
4024;BME280;2026;51.002;13.668;2023-04-10T19:40:21;99078.59;;;11.13;54.80
4024;BME280;2026;51.002;13.668;2023-04-10T19:45:24;99072.63;;;10.99;55.52
4024;BME280;2026;51.002;13.668;2023-04-10T19:50:29;99073.97;;;10.83;57.07
4024;BME280;2026;51.002;13.668;2023-04-10T19:55:34;99074.81;;;10.45;60.09
4024;BME280;2026;51.002;13.668;2023-04-10T20:00:37;99073.47;;;10.29;61.17
4024;BME280;2026;51.002;13.668;2023-04-10T20:05:40;99075.91;;;10.24;62.17
4024;BME280;2026;51.002;13.668;2023-04-10T20:10:45;99069.91;;;10.10;62.72
4024;BME280;2026;51.002;13.668;2023-04-10T20:15:48;99053.59;;;10.08;62.90
4024;BME280;2026;51.002;13.668;2023-04-10T20:20:51;99046.97;;;10.05;62.69
4024;BME280;2026;51.002;13.668;2023-04-10T20:25:55;99032.69;;;9.94;63.45
4024;BME280;2026;51.002;13.668;2023-04-10T20:30:58;99021.44;;;9.87;63.58
4024;BME280;2026;51.002;13.668;2023-04-10T20:36:01;98999.94;;;9.71;64.19
4024;BME280;2026;51.002;13.668;2023-04-10T20:41:06;98993.34;;;9.62;64.45
4024;BME280;2026;51.002;13.668;2023-04-10T20:46:09;99001.81;;;9.50;65.04
4024;BME280;2026;51.002;13.668;2023-04-10T20:51:12;98998.59;;;9.42;65.08
4024;BME280;2026;51.002;13.668;2023-04-10T20:56:16;98985.94;;;9.32;66.08
4024;BME280;2026;51.002;13.668;2023-04-10T21:01:21;98981.09;;;9.35;65.99
4024;BME280;2026;51.002;13.668;2023-04-10T21:06:24;98977.94;;;9.13;67.14
4024;BME280;2026;51.002;13.668;2023-04-10T21:11:29;98973.09;;;9.17;67.40
4024;BME280;2026;51.002;13.668;2023-04-10T21:16:32;98984.59;;;8.89;68.59
4024;BME280;2026;51.002;13.668;2023-04-10T21:21:35;98985.22;;;8.91;68.61
4024;BME280;2026;51.002;13.668;2023-04-10T21:26:39;98969.53;;;8.91;68.82
4024;BME280;2026;51.002;13.668;2023-04-10T21:31:42;98963.50;;;8.63;69.35
4024;BME280;2026;51.002;13.668;2023-04-10T21:36:45;98948.63;;;8.50;70.47
4024;BME280;2026;51.002;13.668;2023-04-10T21:41:50;98944.16;;;8.37;70.98
4024;BME280;2026;51.002;13.668;2023-04-10T21:46:52;98923.28;;;8.64;70.34
4024;BME280;2026;51.002;13.668;2023-04-10T21:51:55;98912.22;;;8.42;71.30
4024;BME280;2026;51.002;13.668;2023-04-10T21:57:01;98916.44;;;8.50;71.58
4024;BME280;2026;51.002;13.668;2023-04-10T22:02:03;98914.81;;;8.55;70.89
4024;BME280;2026;51.002;13.668;2023-04-10T22:07:07;98919.03;;;8.57;70.83
4024;BME280;2026;51.002;13.668;2023-04-10T22:12:11;98910.03;;;8.52;71.27
4024;BME280;2026;51.002;13.668;2023-04-10T22:17:14;98908.38;;;8.24;72.19
4024;BME280;2026;51.002;13.668;2023-04-10T22:22:17;98896.75;;;8.27;72.40
4024;BME280;2026;51.002;13.668;2023-04-10T22:27:23;98889.31;;;8.04;74.62
4024;BME280;2026;51.002;13.668;2023-04-10T22:32:26;98899.16;;;8.15;73.45
4024;BME280;2026;51.002;13.668;2023-04-10T22:37:29;98882.69;;;8.21;73.43
4024;BME280;2026;51.002;13.668;2023-04-10T22:42:33;98874.41;;;8.11;74.09
4024;BME280;2026;51.002;13.668;2023-04-10T22:47:36;98872.22;;;8.08;73.73
4024;BME280;2026;51.002;13.668;2023-04-10T22:52:39;98865.81;;;8.04;73.39
4024;BME280;2026;51.002;13.668;2023-04-10T22:57:47;98842.88;;;7.92;73.95
4024;BME280;2026;51.002;13.668;2023-04-10T23:02:50;98827.84;;;8.35;71.18
4024;BME280;2026;51.002;13.668;2023-04-10T23:07:53;98821.19;;;7.98;73.01
4024;BME280;2026;51.002;13.668;2023-04-10T23:12:58;98807.13;;;8.33;70.16
4024;BME280;2026;51.002;13.668;2023-04-10T23:18:01;98800.84;;;8.61;67.64
4024;BME280;2026;51.002;13.668;2023-04-10T23:23:04;98799.22;;;8.74;67.63
4024;BME280;2026;51.002;13.668;2023-04-10T23:28:08;98789.19;;;8.71;67.82
4024;BME280;2026;51.002;13.668;2023-04-10T23:33:11;98780.69;;;8.82;68.36
4024;BME280;2026;51.002;13.668;2023-04-10T23:38:14;98771.06;;;8.69;69.34
4024;BME280;2026;51.002;13.668;2023-04-10T23:43:18;98765.28;;;8.53;70.02
4024;BME280;2026;51.002;13.668;2023-04-10T23:48:21;98762.09;;;8.51;70.87
4024;BME280;2026;51.002;13.668;2023-04-10T23:53:24;98747.66;;;8.22;71.85
4024;BME280;2026;51.002;13.668;2023-04-10T23:58:29;98722.13;;;8.31;71.47
